Time;durP1;ratioP1;P1;durP2;ratioP2;P2;SDS_P1;SDS_P2;PMS_P1;PMS_P2;Temp;Humidity;BMP_temperature;BMP_pressure;BME280_temperature;BME280_humidity;BME280_pressure;Samples;Min_cycle;Max_cycle;Signal;HPM_P1;HPM_P2
2022/07/17 00:00:47;;;;;;;8.15;4.78;;;14.50;99.90;14.40;98626.00;;;;5044177;28;83513;-60
2022/07/17 00:03:16;;;;;;;8.85;4.28;;;14.50;99.90;14.50;98623.00;;;;5040415;27;83591;-60
2022/07/17 00:05:43;;;;;;;8.98;4.18;;;14.60;99.90;14.60;98616.00;;;;5043569;27;83238;-61
2022/07/17 00:08:11;;;;;;;9.30;4.22;;;14.70;99.90;14.60;98622.00;;;;5043341;28;83092;-60
2022/07/17 00:10:41;;;;;;;9.52;4.28;;;14.70;99.90;14.70;98617.00;;;;5044229;27;82823;-61
2022/07/17 00:13:08;;;;;;;11.30;3.90;;;14.80;99.90;14.80;98614.00;;;;5043323;27;82647;-62
2022/07/17 00:15:34;;;;;;;9.13;4.15;;;14.80;99.90;14.80;98616.00;;;;5042906;28;82404;-62
2022/07/17 00:18:01;;;;;;;8.13;3.80;;;15.20;99.90;14.80;98609.00;;;;5044040;27;81926;-62
2022/07/17 00:20:29;;;;;;;5.30;3.45;;;14.80;99.90;14.80;98621.00;;;;5042867;28;82813;-61
2022/07/17 00:22:55;;;;;;;9.75;4.00;;;14.90;99.90;14.90;98616.00;;;;5043121;27;82756;-61
2022/07/17 00:25:22;;;;;;;6.35;3.95;;;14.90;99.90;14.90;98620.00;;;;5043405;27;82734;-61
2022/07/17 00:27:49;;;;;;;12.05;4.13;;;14.90;99.90;14.90;98614.00;;;;5043119;27;82310;-62
2022/07/17 00:30:16;;;;;;;7.07;4.07;;;14.80;99.90;14.90;98612.00;;;;5042667;28;82522;-61
2022/07/17 00:32:43;;;;;;;7.95;4.10;;;14.90;99.90;14.90;98611.00;;;;5039933;28;84918;-61
2022/07/17 00:35:10;;;;;;;6.10;3.75;;;14.80;99.90;14.80;98615.00;;;;5039285;28;83806;-60
2022/07/17 00:37:42;;;;;;;8.13;3.67;;;14.80;99.90;14.90;98612.00;;;;5043652;27;82376;-62
2022/07/17 00:40:11;;;;;;;11.48;4.07;;;14.80;99.90;14.90;98617.00;;;;5042975;27;82917;-60
2022/07/17 00:42:42;;;;;;;6.53;4.00;;;14.90;99.90;14.90;98609.00;;;;5042816;28;82206;-60
2022/07/17 00:45:12;;;;;;;11.00;4.47;;;14.90;99.90;14.90;98609.00;;;;5042442;28;82241;-61
2022/07/17 00:47:54;;;;;;;7.13;3.80;;;14.80;99.90;14.80;98617.00;;;;5041074;28;82127;-60
2022/07/17 00:50:24;;;;;;;8.55;4.28;;;14.80;99.90;14.70;98605.00;;;;5043114;27;83340;-61
2022/07/17 00:52:51;;;;;;;5.80;3.83;;;14.70;99.90;14.60;98605.00;;;;5041645;28;83886;-61
2022/07/17 00:55:18;;;;;;;5.95;3.33;;;14.70;99.90;14.60;98607.00;;;;5048972;27;82197;-61
2022/07/17 00:57:48;;;;;;;6.38;3.78;;;14.60;99.90;14.60;98611.00;;;;5040697;28;83258;-61
2022/07/17 01:00:16;;;;;;;7.28;3.45;;;14.60;99.90;14.50;98613.00;;;;5039749;28;82158;-61
2022/07/17 01:02:48;;;;;;;5.90;3.80;;;14.60;99.90;14.50;98611.00;;;;5042907;28;84161;-61
2022/07/17 01:05:16;;;;;;;10.68;3.50;;;14.60;99.90;14.50;98607.00;;;;5042703;27;82368;-60
2022/07/17 01:07:43;;;;;;;8.18;3.90;;;14.60;99.90;14.60;98618.00;;;;5041973;27;81952;-60
2022/07/17 01:10:11;;;;;;;6.50;3.92;;;14.60;99.90;14.60;98615.00;;;;5042583;27;83487;-60
2022/07/17 01:12:40;;;;;;;6.43;4.07;;;14.60;99.90;14.50;98625.00;;;;5038765;28;82558;-61
2022/07/17 01:15:09;;;;;;;7.75;4.38;;;14.60;99.90;14.50;98625.00;;;;5037194;28;83655;-63
2022/07/17 01:17:35;;;;;;;9.07;4.05;;;14.60;99.90;14.50;98629.00;;;;5042201;28;82308;-61
2022/07/17 01:20:10;;;;;;;6.53;4.32;;;14.50;99.90;14.50;98628.00;;;;5043029;27;82183;-60
2022/07/17 01:22:44;;;;;;;10.30;4.65;;;14.50;99.90;14.50;98632.00;;;;5042168;27;83428;-60
2022/07/17 01:25:11;;;;;;;9.02;5.28;;;14.50;99.90;14.50;98640.00;;;;5041112;28;84371;-61
2022/07/17 01:27:38;;;;;;;8.43;4.60;;;14.50;99.90;14.50;98644.00;;;;5042279;27;82188;-61
2022/07/17 01:30:05;;;;;;;8.02;4.47;;;14.50;99.90;14.40;98638.00;;;;5041802;27;82178;-61
2022/07/17 01:32:35;;;;;;;10.15;4.88;;;14.50;99.90;14.40;98645.00;;;;5041931;27;83455;-60
2022/07/17 01:35:02;;;;;;;8.68;4.78;;;14.40;99.90;14.40;98646.00;;;;5031865;28;82408;-61
2022/07/17 01:37:31;;;;;;;13.15;5.07;;;14.40;99.90;14.40;98642.00;;;;5042560;27;81966;-61
2022/07/17 01:39:58;;;;;;;9.30;5.60;;;14.40;99.90;14.30;98639.00;;;;5043055;27;83601;-61
2022/07/17 01:42:26;;;;;;;10.10;5.10;;;14.40;99.90;14.30;98641.00;;;;5042344;28;83168;-60
2022/07/17 01:44:54;;;;;;;9.70;4.90;;;14.30;99.90;14.30;98641.00;;;;5040364;28;83440;-63
2022/07/17 01:47:21;;;;;;;7.90;4.18;;;14.30;99.90;14.30;98643.00;;;;5040801;27;83258;-60
2022/07/17 01:49:53;;;;;;;8.90;4.65;;;14.30;99.90;14.30;98636.00;;;;5042212;27;82343;-60
2022/07/17 01:52:21;;;;;;;7.32;4.93;;;14.30;99.90;14.30;98644.00;;;;5042365;28;82516;-62
2022/07/17 01:54:47;;;;;;;7.85;4.68;;;14.30;99.90;14.30;98637.00;;;;5042020;27;82133;-60
2022/07/17 01:57:14;;;;;;;13.77;4.97;;;;;14.30;98645.00;;;;5032733;27;82225;-60
2022/07/17 01:59:41;;;;;;;7.45;4.45;;;14.20;99.90;14.20;98637.00;;;;5042552;28;82161;-60
2022/07/17 02:02:08;;;;;;;10.18;4.68;;;14.20;99.90;14.20;98642.00;;;;5041439;27;83623;-60
2022/07/17 02:04:37;;;;;;;6.47;4.85;;;14.20;99.90;14.20;98634.00;;;;5041970;27;83479;-61
2022/07/17 02:07:07;;;;;;;9.80;4.80;;;14.20;99.90;14.20;98635.00;;;;5040970;28;82238;-61
2022/07/17 02:09:33;;;;;;;9.05;4.57;;;14.20;99.90;14.20;98634.00;;;;5041548;28;82439;-61
2022/07/17 02:12:00;;;;;;;8.70;5.43;;;14.20;99.90;14.30;98634.00;;;;5040419;28;84561;-61
2022/07/17 02:14:26;;;;;;;11.35;5.40;;;;;14.30;98633.00;;;;5040450;28;84264;-60
2022/07/17 02:16:53;;;;;;;12.25;5.68;;;14.20;99.90;14.30;98633.00;;;;5041525;28;82226;-61
2022/07/17 02:19:19;;;;;;;9.13;5.25;;;14.20;99.90;14.30;98635.00;;;;5043153;27;83603;-60
2022/07/17 02:21:45;;;;;;;9.75;5.13;;;14.30;99.90;14.30;98637.00;;;;5045552;27;83685;-61
2022/07/17 02:24:11;;;;;;;10.45;5.45;;;14.30;99.90;14.30;98641.00;;;;5044959;28;83472;-61
2022/07/17 02:26:38;;;;;;;11.70;5.40;;;13.90;99.90;14.40;98648.00;;;;5045004;27;82199;-61
2022/07/17 02:29:04;;;;;;;8.82;5.28;;;14.40;99.90;14.40;98644.00;;;;5045126;28;83424;-61
2022/07/17 02:31:30;;;;;;;11.80;5.75;;;14.40;99.90;14.50;98634.00;;;;5044579;27;84061;-61
2022/07/17 02:33:57;;;;;;;10.23;6.05;;;14.50;99.90;14.50;98635.00;;;;5045851;27;82636;-61
2022/07/17 02:36:23;;;;;;;11.82;5.60;;;14.50;99.90;14.60;98642.00;;;;5044506;28;82992;-61
2022/07/17 02:38:49;;;;;;;11.68;6.07;;;14.50;99.90;14.60;98632.00;;;;5045269;28;82246;-61
2022/07/17 02:41:16;;;;;;;7.38;5.63;;;14.50;99.90;14.60;98644.00;;;;5044518;27;82951;-61
2022/07/17 02:43:42;;;;;;;12.48;5.50;;;14.50;99.90;14.60;98636.00;;;;5045234;28;82439;-61
2022/07/17 02:46:09;;;;;;;12.15;5.63;;;14.60;99.90;14.60;98638.00;;;;5044789;27;82166;-61
2022/07/17 02:48:35;;;;;;;8.93;5.50;;;14.60;99.90;14.70;98633.00;;;;5045419;27;83732;-61
2022/07/17 02:51:02;;;;;;;9.27;5.97;;;;;14.70;98634.00;;;;5044229;28;83907;-61
2022/07/17 02:53:28;;;;;;;8.35;5.53;;;14.60;99.90;14.70;98634.00;;;;5045225;27;82155;-60
2022/07/17 02:55:55;;;;;;;10.55;5.95;;;14.70;99.90;14.70;98639.00;;;;5045012;27;81979;-60
2022/07/17 02:58:21;;;;;;;12.98;6.28;;;15.40;99.90;14.80;98642.00;;;;5034252;28;83584;-61
2022/07/17 03:00:47;;;;;;;15.07;6.10;;;14.70;99.90;14.80;98633.00;;;;5044844;27;83569;-61
2022/07/17 03:03:14;;;;;;;10.27;6.35;;;;;14.80;98635.00;;;;5040214;28;83413;-61
2022/07/17 03:05:40;;;;;;;11.45;7.07;;;14.80;99.90;14.80;98637.00;;;;5044324;27;82410;-61
2022/07/17 03:08:06;;;;;;;16.48;6.95;;;14.80;99.90;14.90;98637.00;;;;5044907;28;82817;-61
2022/07/17 03:10:32;;;;;;;9.32;6.13;;;14.80;99.90;14.90;98631.00;;;;5044253;28;83661;-61
2022/07/17 03:12:58;;;;;;;9.88;6.80;;;14.80;99.90;14.90;98635.00;;;;5043814;27;82519;-62
2022/07/17 03:15:25;;;;;;;7.55;6.38;;;14.80;99.90;14.90;98636.00;;;;5044699;28;82579;-61
2022/07/17 03:17:51;;;;;;;10.80;6.53;;;14.80;99.90;14.90;98635.00;;;;5044837;28;82351;-61
2022/07/17 03:20:17;;;;;;;9.50;5.97;;;14.90;99.90;15.00;98634.00;;;;5044259;28;82393;-61
2022/07/17 03:22:43;;;;;;;11.68;5.82;;;14.90;99.90;15.10;98628.00;;;;5044514;27;82793;-61
2022/07/17 03:25:10;;;;;;;9.45;6.25;;;15.00;99.90;15.20;98629.00;;;;5043060;28;83053;-61
2022/07/17 03:27:38;;;;;;;7.78;5.63;;;15.10;99.90;15.20;98626.00;;;;5044034;28;82275;-61
2022/07/17 03:30:06;;;;;;;9.48;5.82;;;15.10;99.90;15.30;98624.00;;;;5043726;27;82615;-61
2022/07/17 03:32:32;;;;;;;11.98;6.07;;;15.20;99.90;15.40;98634.00;;;;5043123;27;82352;-61
2022/07/17 03:34:58;;;;;;;11.25;5.07;;;15.30;99.90;15.50;98637.00;;;;5044066;28;81973;-61
2022/07/17 03:37:24;;;;;;;9.75;5.65;;;15.40;99.90;15.60;98628.00;;;;5043976;27;82280;-61
2022/07/17 03:39:51;;;;;;;12.00;5.82;;;15.50;99.90;15.70;98627.00;;;;5041800;28;82628;-61
2022/07/17 03:42:17;;;;;;;11.38;5.63;;;15.60;99.90;15.70;98630.00;;;;5044105;28;82533;-62
2022/07/17 03:44:43;;;;;;;8.43;5.40;;;15.60;99.90;15.80;98628.00;;;;5043342;27;81977;-61
2022/07/17 03:47:09;;;;;;;9.10;5.57;;;15.70;99.90;15.90;98628.00;;;;5044166;28;82253;-62
2022/07/17 03:49:35;;;;;;;10.93;6.75;;;15.90;99.90;16.10;98634.00;;;;5043046;28;83940;-61
2022/07/17 03:52:02;;;;;;;9.52;5.07;;;15.90;99.90;16.10;98626.00;;;;5044225;27;83379;-62
2022/07/17 03:54:28;;;;;;;11.38;4.80;;;16.30;99.90;16.50;98633.00;;;;5044537;28;82003;-61
2022/07/17 03:56:54;;;;;;;10.50;5.40;;;;;16.70;98637.00;;;;5035634;27;82159;-62
2022/07/17 03:59:21;;;;;;;6.88;5.00;;;16.50;99.90;16.80;98662.00;;;;5040399;28;83606;-61
2022/07/17 04:01:47;;;;;;;8.50;5.50;;;16.70;99.90;17.00;98641.00;;;;5044247;27;82225;-62
2022/07/17 04:04:14;;;;;;;7.13;4.40;;;16.70;99.90;17.00;98653.00;;;;5044136;27;82048;-62
2022/07/17 04:06:40;;;;;;;7.53;4.60;;;16.70;99.90;16.90;98646.00;;;;5043125;28;82451;-61
2022/07/17 04:09:06;;;;;;;8.45;4.57;;;16.50;99.90;16.80;98639.00;;;;5042738;28;83606;-62
2022/07/17 04:11:32;;;;;;;12.02;4.40;;;16.50;99.90;16.70;98638.00;;;;5043871;27;83388;-61
2022/07/17 04:13:59;;;;;;;13.65;4.28;;;16.30;99.90;16.50;98638.00;;;;5043396;27;83298;-61
2022/07/17 04:16:25;;;;;;;10.88;4.93;;;16.30;99.90;16.50;98629.00;;;;5042863;28;82266;-61
2022/07/17 04:18:51;;;;;;;8.57;4.38;;;16.30;99.90;16.40;98637.00;;;;5043094;28;82538;-62
2022/07/17 04:21:17;;;;;;;10.07;4.57;;;16.30;99.90;16.50;98626.00;;;;5043614;27;82454;-61
2022/07/17 04:23:43;;;;;;;8.07;3.40;;;16.30;99.90;16.40;98630.00;;;;5043501;28;82177;-61
2022/07/17 04:26:10;;;;;;;9.50;3.75;;;16.40;99.90;16.50;98625.00;;;;5043504;27;82340;-62
2022/07/17 04:28:37;;;;;;;13.27;3.47;;;16.50;99.90;16.70;98622.00;;;;5041977;28;82828;-61
2022/07/17 04:31:04;;;;;;;6.82;2.72;;;16.60;99.90;16.80;98630.00;;;;5042681;27;82270;-61
2022/07/17 04:33:30;;;;;;;11.23;3.05;;;16.70;99.90;16.80;98629.00;;;;5043520;28;82324;-61
2022/07/17 04:35:56;;;;;;;6.10;2.90;;;16.70;99.90;16.90;98637.00;;;;5043013;28;82630;-61
2022/07/17 04:38:22;;;;;;;6.10;2.40;;;16.90;99.90;17.10;98623.00;;;;5042588;27;83550;-61
2022/07/17 04:40:49;;;;;;;8.43;2.42;;;17.20;99.90;17.50;98620.00;;;;5042471;28;83171;-61
2022/07/17 04:43:15;;;;;;;3.15;2.10;;;17.10;99.90;17.30;98629.00;;;;5041869;27;82379;-61
2022/07/17 04:45:41;;;;;;;3.17;2.20;;;17.00;99.90;17.20;98622.00;;;;5043066;28;82393;-61
2022/07/17 04:48:07;;;;;;;5.35;2.72;;;17.00;99.90;17.20;98623.00;;;;5043119;28;82437;-61
2022/07/17 04:50:33;;;;;;;6.32;2.33;;;17.10;99.90;17.30;98622.00;;;;5042395;27;82382;-61
2022/07/17 04:53:00;;;;;;;5.10;2.30;;;;;17.50;98620.00;;;;5043551;28;81860;-61
2022/07/17 04:55:27;;;;;;;5.32;2.53;;;17.40;99.90;17.70;98633.00;;;;5043911;27;83312;-61
2022/07/17 04:57:54;;;;;;;5.20;2.15;;;17.40;99.90;17.60;98624.00;;;;5031333;27;82469;-61
2022/07/17 05:00:20;;;;;;;5.13;2.00;;;17.50;99.90;17.70;98627.00;;;;5042943;28;82336;-61
2022/07/17 05:02:46;;;;;;;6.05;2.13;;;17.80;99.90;18.00;98629.00;;;;5042893;27;82986;-62
2022/07/17 05:05:12;;;;;;;5.15;1.60;;;17.90;99.90;18.20;98622.00;;;;5042380;28;83467;-62
2022/07/17 05:07:39;;;;;;;4.78;1.77;;;18.20;99.90;18.40;98631.00;;;;5042978;27;82567;-62
2022/07/17 05:10:08;;;;;;;4.30;1.50;;;18.20;99.90;18.50;98641.00;;;;5042887;28;82488;-61
2022/07/17 05:12:35;;;;;;;4.00;1.52;;;18.40;99.90;18.70;98637.00;;;;5042567;27;82399;-61
2022/07/17 05:15:02;;;;;;;6.00;1.80;;;18.70;99.90;19.00;98648.00;;;;5042824;27;83818;-62
2022/07/17 05:17:29;;;;;;;3.75;1.70;;;18.80;99.90;19.10;98634.00;;;;5036917;28;83675;-62
2022/07/17 05:19:55;;;;;;;8.73;3.70;;;18.80;99.90;19.10;98635.00;;;;5032874;28;82904;-62
2022/07/17 05:22:21;;;;;;;3.70;1.85;;;18.60;99.90;18.90;98637.00;;;;5042834;27;81923;-62
2022/07/17 05:24:47;;;;;;;3.25;1.55;;;18.50;99.90;18.80;98634.00;;;;5042019;28;82456;-62
2022/07/17 05:27:13;;;;;;;3.78;1.70;;;18.50;99.90;18.80;98645.00;;;;5041703;27;83863;-62
2022/07/17 05:29:40;;;;;;;7.00;2.10;;;18.80;99.90;19.10;98638.00;;;;5038983;28;83573;-62
2022/07/17 05:32:06;;;;;;;3.88;1.95;;;19.40;99.90;19.70;98632.00;;;;5042010;27;82083;-62
2022/07/17 05:34:32;;;;;;;4.97;2.00;;;20.10;99.90;20.60;98626.00;;;;5042183;28;82309;-63
2022/07/17 05:36:58;;;;;;;3.55;1.60;;;20.40;99.90;21.00;98638.00;;;;5042169;28;83220;-62
2022/07/17 05:39:24;;;;;;;4.45;1.52;;;20.30;99.90;20.80;98634.00;;;;5042581;28;82674;-61
2022/07/17 05:41:51;;;;;;;2.50;1.55;;;;;21.00;98630.00;;;;5054079;27;82306;-62
2022/07/17 05:44:17;;;;;;;3.50;1.80;;;20.70;99.90;21.20;98623.00;;;;5039594;28;84074;-62
2022/07/17 05:46:44;;;;;;;2.80;1.35;;;;;21.30;98637.00;;;;5042185;27;83767;-62
2022/07/17 05:49:10;;;;;;;4.97;1.70;;;20.70;99.90;21.20;98622.00;;;;5041704;28;82580;-62
2022/07/17 05:51:36;;;;;;;3.75;1.50;;;20.80;99.90;21.20;98616.00;;;;5041518;28;83324;-62
2022/07/17 05:54:02;;;;;;;2.83;1.52;;;21.30;99.90;21.70;98633.00;;;;5041623;27;82525;-62
2022/07/17 05:56:29;;;;;;;7.60;1.60;;;21.40;99.90;21.90;98624.00;;;;5036732;28;82704;-62
2022/07/17 05:58:55;;;;;;;5.20;1.90;;;21.70;99.90;22.20;98616.00;;;;5033793;28;82787;-62
2022/07/17 06:01:21;;;;;;;3.75;1.40;;;22.30;99.90;22.90;98625.00;;;;5040297;28;82417;-62
2022/07/17 06:03:47;;;;;;;3.03;1.60;;;23.00;99.90;23.70;98630.00;;;;5041701;27;82560;-62
2022/07/17 06:06:14;;;;;;;5.97;1.70;;;;;23.10;98625.00;;;;5041587;28;83908;-62
2022/07/17 06:08:40;;;;;;;1.75;1.10;;;22.00;99.90;22.40;98628.00;;;;5042051;28;82305;-63
2022/07/17 06:11:07;;;;;;;3.85;1.40;;;22.00;99.90;22.60;98630.00;;;;5041567;27;82289;-62
2022/07/17 06:13:33;;;;;;;8.75;1.30;;;22.20;99.90;23.20;98628.00;;;;5040882;28;85059;-62
2022/07/17 06:16:00;;;;;;;2.15;1.08;;;22.80;99.90;23.60;98625.00;;;;5040983;27;84337;-63
2022/07/17 06:18:27;;;;;;;2.03;1.27;;;23.20;99.90;24.00;98624.00;;;;5041658;28;83423;-62
2022/07/17 06:20:53;;;;;;;3.38;1.20;;;23.60;99.90;24.50;98634.00;;;;5041531;27;82333;-62
2022/07/17 06:23:19;;;;;;;2.75;1.02;;;23.50;99.90;24.50;98629.00;;;;5041402;27;82461;-62
2022/07/17 06:25:45;;;;;;;4.80;1.00;;;23.80;99.90;24.70;98635.00;;;;5041489;27;82742;-62
2022/07/17 06:28:11;;;;;;;2.40;1.10;;;23.30;99.90;24.40;98633.00;;;;5041145;27;82368;-62
2022/07/17 06:30:38;;;;;;;3.33;1.15;;;22.40;99.90;22.90;98633.00;;;;5040087;28;82948;-62
2022/07/17 06:33:04;;;;;;;2.38;0.88;;;;;22.20;98627.00;;;;5039936;28;83961;-62
2022/07/17 06:35:33;;;;;;;2.08;1.00;;;21.30;99.90;21.60;98626.00;;;;5032228;27;83613;-62
2022/07/17 06:38:00;;;;;;;2.65;0.80;;;21.00;99.90;21.30;98606.00;;;;5041605;27;83431;-62
2022/07/17 06:40:26;;;;;;;1.63;1.00;;;21.10;99.90;21.30;98614.00;;;;5038777;28;82904;-62
2022/07/17 06:42:52;;;;;;;2.13;0.98;;;21.00;99.90;21.30;98621.00;;;;5040358;27;82281;-62
2022/07/17 06:45:19;;;;;;;2.30;1.00;;;21.20;99.90;21.30;98611.00;;;;5038643;28;82599;-62
2022/07/17 06:47:45;;;;;;;2.17;1.00;;;21.20;99.90;21.40;98607.00;;;;5037431;28;82336;-62
2022/07/17 06:50:11;;;;;;;4.75;2.22;;;21.10;99.90;21.30;98617.00;;;;5039593;27;82283;-62
2022/07/17 06:52:38;;;;;;;3.15;1.00;;;21.30;99.90;21.30;98607.00;;;;5039738;27;82877;-62
2022/07/17 06:55:04;;;;;;;4.60;1.52;;;21.20;99.90;21.30;98598.00;;;;5040038;27;81924;-62
2022/07/17 06:57:31;;;;;;;3.55;1.10;;;21.40;99.90;21.40;98613.00;;;;5039082;28;82256;-61
2022/07/17 06:59:57;;;;;;;7.65;1.58;;;21.40;99.90;21.40;98606.00;;;;5040287;28;82323;-62
2022/07/17 07:02:23;;;;;;;5.53;1.67;;;21.30;99.90;21.30;98595.00;;;;5040320;28;82398;-62
2022/07/17 07:04:49;;;;;;;4.78;1.50;;;;;21.20;98596.00;;;;5039775;28;84752;-62
2022/07/17 07:07:15;;;;;;;3.17;1.20;;;21.10;99.90;21.20;98600.00;;;;5042012;27;84322;-62
2022/07/17 07:09:42;;;;;;;3.67;1.17;;;21.10;99.90;21.20;98603.00;;;;5044030;28;82530;-62
2022/07/17 07:12:08;;;;;;;4.32;1.10;;;;;21.40;98606.00;;;;5044056;27;82257;-62
2022/07/17 07:14:35;;;;;;;3.40;1.42;;;;;21.80;98610.00;;;;5043666;28;83251;-62
2022/07/17 07:17:01;;;;;;;3.03;1.35;;;;;22.10;98606.00;;;;5043692;28;82498;-62
2022/07/17 07:19:27;;;;;;;6.85;1.65;;;21.80;99.90;22.00;98606.00;;;;5043168;28;83157;-61
2022/07/17 07:21:54;;;;;;;3.10;1.50;;;21.40;99.90;21.60;98615.00;;;;5043879;27;83458;-62
2022/07/17 07:24:20;;;;;;;4.00;1.08;;;21.30;99.90;21.50;98615.00;;;;5044188;27;82380;-62
2022/07/17 07:26:46;;;;;;;6.22;0.98;;;21.20;99.90;21.40;98621.00;;;;5043882;27;82170;-62
2022/07/17 07:29:12;;;;;;;4.43;1.02;;;21.10;99.90;21.40;98619.00;;;;5042981;27;82972;-62
2022/07/17 07:31:38;;;;;;;1.83;1.20;;;21.30;99.90;21.50;98621.00;;;;5043073;27;82367;-62
2022/07/17 07:34:04;;;;;;;5.20;1.30;;;21.30;99.90;21.60;98605.00;;;;5044175;28;82456;-62
2022/07/17 07:36:31;;;;;;;3.17;1.35;;;;;21.80;98605.00;;;;5043435;27;82263;-62
2022/07/17 07:38:57;;;;;;;2.17;0.82;;;21.70;99.90;21.90;98604.00;;;;5044214;27;82631;-62
2022/07/17 07:41:23;;;;;;;2.88;1.13;;;21.90;99.90;22.10;98598.00;;;;5043061;28;82279;-61
2022/07/17 07:43:49;;;;;;;2.83;1.08;;;22.30;99.90;22.40;98599.00;;;;5043178;28;82546;-63
2022/07/17 07:46:16;;;;;;;2.85;1.00;;;22.60;99.90;22.70;98605.00;;;;5043292;28;82650;-63
2022/07/17 07:48:42;;;;;;;5.38;1.40;;;22.30;99.90;22.70;98611.00;;;;5044188;28;81824;-63
2022/07/17 07:51:08;;;;;;;4.15;1.00;;;22.20;99.90;22.50;98611.00;;;;5042253;28;82707;-63
2022/07/17 07:53:34;;;;;;;2.22;1.25;;;22.00;99.90;22.40;98614.00;;;;5042723;27;83480;-62
2022/07/17 07:56:01;;;;;;;4.70;1.20;;;;;22.20;98622.00;;;;5042886;28;83527;-63
2022/07/17 07:58:27;;;;;;;2.13;1.00;;;21.70;99.90;21.90;98624.00;;;;5042524;28;82530;-64
2022/07/17 08:00:53;;;;;;;3.22;1.10;;;21.40;99.90;21.80;98634.00;;;;5042746;28;82401;-64
2022/07/17 08:03:20;;;;;;;2.17;0.93;;;21.30;99.90;21.70;98623.00;;;;5042482;28;82590;-61
2022/07/17 08:05:46;;;;;;;2.70;1.00;;;;;21.70;98640.00;;;;5042117;28;84363;-62
2022/07/17 08:08:12;;;;;;;2.47;1.00;;;21.40;99.90;21.80;98647.00;;;;5042372;27;82384;-62
2022/07/17 08:10:39;;;;;;;3.60;1.15;;;21.40;99.90;21.80;98642.00;;;;5043068;28;83570;-61
2022/07/17 08:13:05;;;;;;;9.15;1.73;;;21.40;99.90;21.70;98647.00;;;;5042634;27;84377;-61
2022/07/17 08:15:31;;;;;;;3.90;1.15;;;21.30;99.90;21.60;98636.00;;;;5043494;28;82299;-61
2022/07/17 08:17:59;;;;;;;3.00;1.08;;;21.40;99.90;21.60;98644.00;;;;5041622;27;83227;-60
2022/07/17 08:20:25;;;;;;;2.88;1.42;;;21.40;99.90;21.60;98641.00;;;;5034376;28;82507;-62
2022/07/17 08:22:51;;;;;;;2.42;1.10;;;21.40;99.90;21.60;98624.00;;;;5043273;28;82745;-62
2022/07/17 08:25:18;;;;;;;5.25;0.95;;;21.50;99.90;21.70;98633.00;;;;5043425;28;82619;-62
2022/07/17 08:27:44;;;;;;;2.25;1.00;;;;;21.90;98626.00;;;;5043403;27;82438;-62
2022/07/17 08:30:13;;;;;;;2.42;1.05;;;22.00;99.90;22.20;98624.00;;;;5042294;28;82366;-62
2022/07/17 08:32:40;;;;;;;3.00;0.88;;;22.30;99.90;22.40;98631.00;;;;5042354;27;82934;-61
2022/07/17 08:35:07;;;;;;;2.17;0.77;;;22.40;99.90;22.60;98632.00;;;;5042454;27;82975;-62
2022/07/17 08:38:03;;;;;;;4.50;1.05;;;22.70;99.90;22.90;98633.00;;;;5043428;27;82747;-63
2022/07/17 08:40:34;;;;;;;5.25;0.80;;;22.80;99.90;23.10;98628.00;;;;5042071;27;82400;-62
2022/07/17 08:43:03;;;;;;;1.88;0.98;;;22.70;99.90;23.00;98634.00;;;;5041849;28;84415;-62
2022/07/17 08:45:30;;;;;;;3.92;0.82;;;;;22.70;98627.00;;;;5042291;27;83281;-62
2022/07/17 08:47:57;;;;;;;2.92;0.93;;;22.20;99.90;22.60;98621.00;;;;5043257;28;82234;-62
2022/07/17 08:50:32;;;;;;;3.20;0.90;;;22.10;99.90;22.50;98632.00;;;;5041907;27;82277;-62
2022/07/17 08:52:59;;;;;;;3.60;0.75;;;22.10;99.90;22.50;98637.00;;;;5043030;27;82490;-62
2022/07/17 08:55:27;;;;;;;1.20;0.80;;;;;22.70;98637.00;;;;5041691;28;82513;-62
2022/07/17 08:57:54;;;;;;;4.72;0.90;;;;;22.90;98646.00;;;;5028318;27;82306;-63
2022/07/17 09:00:23;;;;;;;3.67;1.00;;;22.60;99.90;23.10;98650.00;;;;5041663;27;83416;-63
2022/07/17 09:02:56;;;;;;;1.75;0.80;;;22.80;99.90;23.30;98648.00;;;;5038447;28;82572;-63
2022/07/17 09:05:36;;;;;;;3.70;1.08;;;22.90;99.90;23.40;98646.00;;;;5038949;28;82587;-62
2022/07/17 09:08:04;;;;;;;3.47;1.55;;;23.00;99.90;23.50;98641.00;;;;5042647;28;83250;-61
2022/07/17 09:10:38;;;;;;;5.07;1.45;;;23.20;99.90;23.70;98649.00;;;;5041973;28;82454;-60
2022/07/17 09:13:24;;;;;;;2.47;0.93;;;23.30;99.90;23.80;98635.00;;;;5041366;28;83092;-60
2022/07/17 09:16:13;;;;;;;2.50;1.00;;;23.70;99.90;24.10;98644.00;;;;5042736;27;82315;-63
2022/07/17 09:18:49;;;;;;;5.53;0.90;;;24.00;99.90;24.50;98644.00;;;;5036299;28;82445;-63
2022/07/17 09:21:25;;;;;;;3.10;0.98;;;24.30;99.90;24.80;98646.00;;;;5042563;28;83828;-63
2022/07/17 09:24:06;;;;;;;3.63;0.80;;;24.10;99.90;24.60;98651.00;;;;5042200;28;82675;-63
2022/07/17 09:26:44;;;;;;;2.83;0.95;;;23.80;99.90;24.10;98641.00;;;;5038087;28;82552;-63
2022/07/17 09:29:12;;;;;;;2.53;0.80;;;23.70;99.90;24.10;98650.00;;;;5040054;28;82310;-61
2022/07/17 09:31:39;;;;;;;4.50;0.95;;;;;24.10;98651.00;;;;5040272;28;82445;-63
2022/07/17 09:34:05;;;;;;;3.83;0.88;;;23.20;99.90;23.70;98655.00;;;;5040468;28;83572;-63
2022/07/17 09:36:31;;;;;;;5.07;0.88;;;23.30;99.90;23.40;98650.00;;;;5042238;28;84014;-63
2022/07/17 09:38:58;;;;;;;5.47;0.95;;;22.80;99.90;23.20;98647.00;;;;5042652;27;82412;-61
2022/07/17 09:41:29;;;;;;;3.00;0.93;;;22.90;99.90;23.30;98651.00;;;;5041760;28;82395;-61
2022/07/17 09:44:00;;;;;;;4.38;1.10;;;22.80;99.90;23.30;98638.00;;;;5040773;27;83007;-62
2022/07/17 09:46:39;;;;;;;1.83;0.90;;;23.10;99.90;23.60;98627.00;;;;5039565;28;83049;-62
2022/07/17 09:49:09;;;;;;;4.78;1.15;;;23.40;99.90;23.90;98628.00;;;;5041257;27;82325;-63
2022/07/17 09:51:38;;;;;;;1.70;0.90;;;23.70;99.90;24.20;98628.00;;;;5041361;28;83650;-63
2022/07/17 09:54:09;;;;;;;3.60;1.00;;;23.70;99.90;24.30;98634.00;;;;5036833;28;82301;-62
2022/07/17 09:56:37;;;;;;;4.22;1.20;;;23.80;99.90;24.30;98632.00;;;;5033893;28;82225;-61
2022/07/17 09:59:10;;;;;;;5.75;0.90;;;23.70;99.90;24.20;98631.00;;;;5039173;27;83825;-61
2022/07/17 10:01:41;;;;;;;2.22;0.90;;;23.30;99.90;23.70;98642.00;;;;5042026;27;82374;-62
2022/07/17 10:04:08;;;;;;;3.90;0.90;;;23.00;99.90;23.50;98645.00;;;;5035414;27;84015;-62
2022/07/17 10:06:34;;;;;;;6.30;1.10;;;22.70;99.90;23.20;98645.00;;;;5041353;28;83315;-62
2022/07/17 10:09:02;;;;;;;6.43;2.38;;;22.60;99.90;23.10;98653.00;;;;5041940;27;82440;-60
2022/07/17 10:11:31;;;;;;;4.55;1.35;;;22.70;99.90;23.20;98661.00;;;;5035339;28;82392;-64
2022/07/17 10:14:10;;;;;;;4.45;1.40;;;22.60;99.90;23.00;98659.00;;;;5039888;28;82765;-61
2022/07/17 10:16:38;;;;;;;2.38;1.17;;;22.50;99.90;22.90;98658.00;;;;5035326;28;82568;-64
2022/07/17 10:19:25;;;;;;;5.35;1.40;;;22.40;99.90;22.80;98651.00;;;;5040673;28;82455;-63
2022/07/17 10:22:01;;;;;;;2.75;1.35;;;22.40;99.90;22.80;98657.00;;;;5041992;27;81971;-64
2022/07/17 10:24:29;;;;;;;4.50;1.13;;;22.50;99.90;23.00;98646.00;;;;5039995;28;85164;-61
2022/07/17 10:26:57;;;;;;;3.63;1.10;;;22.50;99.90;23.00;98656.00;;;;5039811;28;83241;-63
2022/07/17 10:29:38;;;;;;;3.42;1.10;;;22.50;99.90;22.90;98649.00;;;;5040202;28;82342;-62
2022/07/17 10:32:14;;;;;;;3.83;1.10;;;22.50;99.90;23.30;98637.00;;;;5040706;28;82619;-64
2022/07/17 10:34:53;;;;;;;3.38;1.75;;;23.20;99.90;23.70;98638.00;;;;5038864;28;82472;-61
2022/07/17 10:37:26;;;;;;;3.67;1.25;;;23.10;99.90;23.60;98646.00;;;;5039122;28;82994;-61
2022/07/17 10:40:04;;;;;;;8.23;1.42;;;23.20;99.90;23.50;98653.00;;;;5041979;28;82743;-62
2022/07/17 10:43:06;;;;;;;5.45;1.13;;;23.10;99.90;23.60;98648.00;;;;5045706;28;82158;-62
2022/07/17 10:45:45;;;;;;;1.50;0.90;;;23.20;99.90;23.60;98643.00;;;;5042756;28;82808;-62
2022/07/17 10:48:14;;;;;;;4.15;1.00;;;23.10;99.90;23.50;98629.00;;;;5044616;27;82324;-62
2022/07/17 10:50:51;;;;;;;1.80;1.00;;;23.20;99.90;23.60;98627.00;;;;5043717;28;83169;-62
2022/07/17 10:53:32;;;;;;;5.05;1.92;;;23.20;99.90;23.60;98633.00;;;;5043643;28;82670;-62
2022/07/17 10:56:04;;;;;;;1.92;0.70;;;22.90;99.90;23.30;98635.00;;;;5044934;28;82392;-62
2022/07/17 10:58:37;;;;;;;2.97;1.00;;;22.80;99.90;23.10;98630.00;;;;5027818;28;83232;-62
2022/07/17 11:01:17;;;;;;;3.92;1.13;;;22.50;99.90;22.80;98618.00;;;;5025189;28;82323;-61
2022/07/17 11:03:53;;;;;;;3.35;1.42;;;22.60;99.90;23.00;98613.00;;;;5043869;28;82809;-62